This is the latest recevied weather packets stored in our database for station/object VE8SKI. If no packets are shown the sender has not sent any weather packets the latest 1 day(s).
| Time | Temp. | Humidity | Pressure | Rain* | Wind** | Luminosity | Snow |
|---|---|---|---|---|---|---|---|
| 1778091219 | 7.78° C | 42% | 1010.7 hPa | 0 mm | 3.58 m/s, 193° | - | - |
| 1778090620 | 7.78° C | 40% | 1010.7 hPa | 0 mm | 4.47 m/s, 219° | - | - |
| 1778090018 | 7.78° C | 41% | 1010.8 hPa | 0 mm | 4.47 m/s, 143° | - | - |
| 1778088820 | 7.22° C | 41% | 1011.1 hPa | 0 mm | 4.02 m/s, 249° | - | - |
| 1778087020 | 7.78° C | 42% | 1011.8 hPa | 0 mm | 2.68 m/s, 128° | - | - |
| 1778086418 | 7.22° C | 44% | 1011.9 hPa | 0 mm | 2.68 m/s, 145° | - | - |
| 1778085220 | 6.11° C | 44% | 1012.2 hPa | 0 mm | 3.58 m/s, 225° | - | - |
| 1778084019 | 6.11° C | 45% | 1012.6 hPa | 0 mm | 4.02 m/s, 197° | - | - |
| 1778083420 | 5.56° C | 44% | 1012.8 hPa | 0 mm | 4.47 m/s, 238° | - | - |
| 1778082818 | 5.56° C | 45% | 1012.9 hPa | 0 mm | 3.13 m/s, 288° | - | - |
| 1778081620 | 5.56° C | 44% | 1013.3 hPa | 0 mm | 3.58 m/s, 181° | - | - |
| 1778080719 | 5° C | 45% | 1013.5 hPa | 0 mm | 4.92 m/s, 225° | - | - |
| 1778078919 | 4.44° C | 46% | 1013.9 hPa | 0 mm | 4.47 m/s, 218° | - | - |
| 1778078320 | 4.44° C | 47% | 1014 hPa | 0 mm | 4.47 m/s, 180° | - | - |
| 1778078020 | 4.44° C | 47% | 1014.1 hPa | 0 mm | 4.92 m/s, 131° | - | - |
| 1778076220 | 3.89° C | 49% | 1014.5 hPa | 0 mm | 4.92 m/s, 228° | - | - |
| 1778075618 | 3.33° C | 49% | 1014.6 hPa | 0 mm | 4.02 m/s, 270° | - | - |
| 1778075019 | 3.33° C | 50% | 1014.7 hPa | 0 mm | 4.47 m/s, 125° | - | - |
| 1778074120 | 3.33° C | 51% | 1014.9 hPa | 0 mm | 3.13 m/s, 242° | - | - |
| 1778073818 | 3.33° C | 50% | 1014.9 hPa | 0 mm | 4.47 m/s, 201° | - | - |
| 1778071718 | 2.78° C | 52% | 1015.4 hPa | 0 mm | 4.47 m/s, 255° | - | - |
| 1778071119 | 2.78° C | 53% | 1015.5 hPa | 0 mm | 5.36 m/s, 211° | - | - |
| 1778070520 | 2.78° C | 53% | 1015.5 hPa | 0 mm | 4.92 m/s, 256° | - | - |
| 1778069918 | 2.78° C | 53% | 1015.6 hPa | 0 mm | 0 m/s | - | - |
| 1778069319 | 2.78° C | 53% | 1015.7 hPa | 0 mm | 4.02 m/s, 239° | - | - |
* Rain latest hour (hover to see other rain measurements)
** Current wind speed in m/s (hover to see current wind gust speed)